Terminal Aerodrome Forecast
Issued by NWS

Home | Current Version | Previous Version | Text Only | Print | Product List | Glossary On
Versions: 1 2 3 4 5 6 7 8 9 10 11 12 13 14
318
FTUS43 KGRB 101722
TAFCWA
TAF
KCWA 101722Z 1018/1118 30006KT P6SM SCT024 BKN050
      TEMPO 1018/1020 OVC024
     FM110200 VRB03KT P6SM -SN OVC035
     FM110300 VRB03KT 5SM -SN OVC015
      TEMPO 1103/1106 2SM -SN OVC015
     FM110600 10007KT 1 1/2SM -SN OVC014
     FM111200 10007KT 1SM -SN OVC012=

USA.gov is the U.S. government's official web portal to all federal, state and local government web resources and services.